createdAt,value
2023-01-28T00:01:06.048Z,21.55
2023-01-28T00:03:32.598Z,22.17
2023-01-28T00:06:08.116Z,21.02
2023-01-28T00:08:35.081Z,24.15
2023-01-28T00:11:03.147Z,19.65
2023-01-28T00:13:30.669Z,21.75
2023-01-28T00:15:59.150Z,22.13
2023-01-28T00:18:27.175Z,20.73
2023-01-28T00:20:58.934Z,21.73
2023-01-28T00:23:27.124Z,21.88
2023-01-28T00:25:54.677Z,21.10
2023-01-28T00:28:22.347Z,20.08
2023-01-28T00:30:48.889Z,22.70
2023-01-28T00:33:15.484Z,21.63
2023-01-28T00:35:42.266Z,19.90
2023-01-28T00:38:09.138Z,19.70
2023-01-28T00:40:35.865Z,19.20
2023-01-28T00:43:02.538Z,20.92
2023-01-28T00:45:29.272Z,20.23
2023-01-28T00:47:55.840Z,18.02
2023-01-28T00:50:22.567Z,20.55
2023-01-28T00:52:49.077Z,17.85
2023-01-28T00:55:15.903Z,17.67
2023-01-28T00:57:42.652Z,19.13
2023-01-28T01:00:09.759Z,20.00
2023-01-28T01:02:36.428Z,15.90
2023-01-28T01:05:03.244Z,19.02
2023-01-28T01:07:41.785Z,16.75
2023-01-28T01:10:13.777Z,18.50
2023-01-28T01:12:40.763Z,17.75
2023-01-28T01:15:10.762Z,16.88
2023-01-28T01:17:42.137Z,16.80
2023-01-28T01:20:20.737Z,16.23
2023-01-28T01:22:47.795Z,16.38
2023-01-28T01:25:16.847Z,16.30
2023-01-28T01:27:46.210Z,14.93
2023-01-28T01:30:13.030Z,16.27
2023-01-28T01:32:39.559Z,17.05
2023-01-28T01:35:08.105Z,16.00
2023-01-28T01:37:37.482Z,17.40
2023-01-28T01:40:05.055Z,14.57
2023-01-28T01:42:32.943Z,15.80
2023-01-28T01:45:06.515Z,17.30
2023-01-28T01:47:35.938Z,17.20
2023-01-28T01:50:09.765Z,15.82
2023-01-28T01:55:09.360Z,14.68
2023-01-28T01:57:36.756Z,13.63
2023-01-28T02:00:06.397Z,16.00
2023-01-28T02:02:43.354Z,13.27
2023-01-28T02:05:12.157Z,13.27
2023-01-28T02:07:39.040Z,14.63
2023-01-28T02:10:07.757Z,13.38
2023-01-28T02:12:37.337Z,13.68
2023-01-28T02:15:10.946Z,11.45
2023-01-28T02:17:38.365Z,12.82
2023-01-28T02:20:13.181Z,13.98
2023-01-28T02:23:05.412Z,13.05
2023-01-28T02:25:53.934Z,12.27
2023-01-28T02:28:36.716Z,14.00
2023-01-28T02:31:14.286Z,11.73
2023-01-28T02:33:59.478Z,12.60
2023-01-28T02:36:40.346Z,13.50
2023-01-28T02:39:13.190Z,12.13
2023-01-28T02:42:16.325Z,14.37
2023-01-28T02:44:42.910Z,11.77
2023-01-28T02:47:32.627Z,13.00
2023-01-28T02:50:03.679Z,12.20
2023-01-28T02:52:55.577Z,11.95
2023-01-28T02:56:01.683Z,11.35
2023-01-28T02:58:37.207Z,10.40
2023-01-28T03:01:25.302Z,11.20
2023-01-28T03:04:03.472Z,10.77
2023-01-28T03:06:41.795Z,10.85
2023-01-28T03:09:24.268Z,9.45
2023-01-28T03:12:28.101Z,9.82
2023-01-28T03:15:21.392Z,10.77
2023-01-28T03:18:31.704Z,10.25
2023-01-28T03:21:39.459Z,11.50
2023-01-28T03:24:24.845Z,10.23
2023-01-28T03:27:19.573Z,10.10
2023-01-28T03:30:06.533Z,8.95
2023-01-28T03:32:52.861Z,9.05
2023-01-28T03:35:42.148Z,10.00
2023-01-28T03:38:23.397Z,9.77
2023-01-28T03:40:52.194Z,7.35
2023-01-28T03:43:18.974Z,8.93
2023-01-28T03:45:46.326Z,8.77
2023-01-28T03:48:15.291Z,8.30
2023-01-28T03:50:41.801Z,7.63
2023-01-28T03:53:16.428Z,8.00
2023-01-28T03:55:44.441Z,9.55
2023-01-28T03:58:11.518Z,8.25
2023-01-28T04:00:42.146Z,8.75
2023-01-28T04:03:19.709Z,9.05
2023-01-28T04:06:01.977Z,8.77
2023-01-28T04:08:28.643Z,8.07
2023-01-28T04:10:55.767Z,7.47
2023-01-28T04:13:22.438Z,8.55
2023-01-28T04:15:49.725Z,6.50
2023-01-28T04:18:16.373Z,7.18
2023-01-28T04:20:42.937Z,7.60
2023-01-28T04:23:09.914Z,7.82
2023-01-28T04:25:36.431Z,7.10
2023-01-28T04:28:03.195Z,7.55
2023-01-28T04:30:29.759Z,7.63
2023-01-28T04:32:56.281Z,8.15
2023-01-28T04:35:22.784Z,7.90
2023-01-28T04:37:49.323Z,6.57
2023-01-28T04:40:15.803Z,7.53
2023-01-28T04:42:42.278Z,7.85
2023-01-28T04:45:09.102Z,7.55
2023-01-28T04:47:35.645Z,5.93
2023-01-28T04:50:02.183Z,6.47
2023-01-28T04:52:28.727Z,6.68
2023-01-28T04:54:55.775Z,6.93
2023-01-28T04:57:22.277Z,6.18
2023-01-28T04:59:48.731Z,6.63
2023-01-28T05:02:15.281Z,5.82
2023-01-28T05:04:41.830Z,5.72
2023-01-28T05:07:08.315Z,6.25
2023-01-28T05:09:34.869Z,6.55
2023-01-28T05:12:01.357Z,5.82
2023-01-28T05:14:27.860Z,6.00
2023-01-28T05:16:54.376Z,6.50
2023-01-28T05:19:20.930Z,6.45
2023-01-28T05:21:47.569Z,6.05
2023-01-28T05:24:15.752Z,5.97
2023-01-28T05:26:42.766Z,5.15
2023-01-28T05:29:09.290Z,6.00
2023-01-28T05:31:35.818Z,6.25
2023-01-28T05:34:02.357Z,5.32
2023-01-28T05:36:28.858Z,6.80
2023-01-28T05:38:55.397Z,5.20
2023-01-28T05:41:21.896Z,5.57
2023-01-28T05:43:48.400Z,5.07
2023-01-28T05:46:14.898Z,5.13
2023-01-28T05:48:41.452Z,4.85
2023-01-28T05:51:07.982Z,5.32
2023-01-28T05:53:34.526Z,6.10
2023-01-28T05:56:01.088Z,4.75
2023-01-28T05:58:30.876Z,4.90
2023-01-28T06:00:58.140Z,5.53
2023-01-28T06:03:24.682Z,5.63
2023-01-28T06:05:51.199Z,6.07
2023-01-28T06:08:17.719Z,6.05
2023-01-28T06:10:44.224Z,9.32
2023-01-28T06:13:10.745Z,6.05
2023-01-28T06:15:37.301Z,5.88
2023-01-28T06:18:03.939Z,5.25
2023-01-28T06:20:30.475Z,5.90
2023-01-28T06:22:57.213Z,9.88
2023-01-28T06:25:23.721Z,5.63
2023-01-28T06:27:50.197Z,7.15
2023-01-28T06:30:17.289Z,7.78
2023-01-28T06:32:44.704Z,7.30
2023-01-28T06:35:11.966Z,5.75
2023-01-28T06:37:39.641Z,6.30
2023-01-28T06:40:06.715Z,7.05
2023-01-28T06:42:33.201Z,6.35
2023-01-28T06:44:59.776Z,8.20
2023-01-28T06:47:26.283Z,7.40
2023-01-28T06:49:52.799Z,6.57
2023-01-28T06:52:19.656Z,5.25
2023-01-28T06:54:46.150Z,7.68
2023-01-28T06:57:12.661Z,7.57
2023-01-28T06:59:39.337Z,9.88
2023-01-28T07:02:05.927Z,8.23
2023-01-28T07:04:32.612Z,6.63
2023-01-28T07:06:59.164Z,7.25
2023-01-28T07:09:25.697Z,8.07
2023-01-28T07:11:52.293Z,8.60
2023-01-28T07:14:18.805Z,8.27
2023-01-28T07:16:45.280Z,9.35
2023-01-28T07:19:11.817Z,13.00
2023-01-28T07:21:38.356Z,13.20
2023-01-28T07:24:06.119Z,12.88
2023-01-28T07:26:32.727Z,13.55
2023-01-28T07:29:00.267Z,13.25
2023-01-28T07:31:26.873Z,11.80
2023-01-28T07:33:53.419Z,14.00
2023-01-28T07:36:20.549Z,13.68
2023-01-28T07:38:47.045Z,13.25
2023-01-28T07:41:13.697Z,14.32
2023-01-28T07:43:40.183Z,14.90
2023-01-28T07:46:06.954Z,12.55
2023-01-28T07:48:33.471Z,12.75
2023-01-28T07:51:00.123Z,14.95
2023-01-28T07:53:26.621Z,15.43
2023-01-28T07:55:58.244Z,12.88
2023-01-28T07:58:24.731Z,13.25
2023-01-28T08:00:51.230Z,12.88
2023-01-28T08:03:17.782Z,11.77
2023-01-28T08:05:49.213Z,13.90
2023-01-28T08:08:16.354Z,14.15
2023-01-28T08:10:44.028Z,13.95
2023-01-28T08:13:11.845Z,14.65
2023-01-28T08:15:38.845Z,12.10
2023-01-28T08:18:07.514Z,13.25
2023-01-28T08:20:34.053Z,11.75
2023-01-28T08:23:09.028Z,13.32
2023-01-28T08:25:36.009Z,15.15
2023-01-28T08:28:03.932Z,12.05
2023-01-28T08:30:30.783Z,11.45
2023-01-28T08:32:58.243Z,13.00
2023-01-28T08:35:29.096Z,14.13
2023-01-28T08:37:55.928Z,10.13
2023-01-28T08:40:22.663Z,10.95
2023-01-28T08:42:50.700Z,10.68
2023-01-28T08:45:17.878Z,11.32
2023-01-28T08:47:49.309Z,11.93
2023-01-28T08:50:16.887Z,10.73
2023-01-28T08:52:44.566Z,11.77
2023-01-28T08:55:12.155Z,10.27
2023-01-28T08:57:38.805Z,8.95
2023-01-28T09:00:06.780Z,11.82
2023-01-28T09:02:33.319Z,9.18
2023-01-28T09:05:00.173Z,10.40
2023-01-28T09:07:26.655Z,9.02
2023-01-28T09:09:53.444Z,8.63
2023-01-28T09:12:19.996Z,9.55
2023-01-28T09:14:46.496Z,10.20
2023-01-28T09:17:13.114Z,9.05
2023-01-28T09:19:39.641Z,9.00
2023-01-28T09:22:06.755Z,9.65
2023-01-28T09:24:33.259Z,10.73
2023-01-28T09:26:59.753Z,9.43
2023-01-28T09:29:26.273Z,8.02
2023-01-28T09:31:52.790Z,8.95
2023-01-28T09:34:19.300Z,8.88
2023-01-28T09:36:46.115Z,8.95
2023-01-28T09:39:12.688Z,9.13
2023-01-28T09:41:51.214Z,9.70
2023-01-28T09:44:33.003Z,10.23
2023-01-28T09:47:04.645Z,10.98
2023-01-28T09:49:46.621Z,9.93
2023-01-28T09:52:15.878Z,12.27
2023-01-28T09:54:46.821Z,9.90
2023-01-28T09:57:53.266Z,10.30
2023-01-28T10:00:29.337Z,10.30
2023-01-28T10:03:15.963Z,11.63
2023-01-28T10:06:06.438Z,10.30
2023-01-28T10:09:00.601Z,10.68
2023-01-28T10:11:39.120Z,12.40
2023-01-28T10:14:18.723Z,10.20
2023-01-28T10:17:14.511Z,10.25
2023-01-28T10:19:53.121Z,11.27
2023-01-28T10:22:25.993Z,9.57
2023-01-28T10:25:06.762Z,10.67
2023-01-28T10:27:36.107Z,11.85
2023-01-28T10:30:16.055Z,11.20
2023-01-28T10:32:51.520Z,10.95
2023-01-28T10:35:18.056Z,10.43
2023-01-28T10:37:44.829Z,11.07
2023-01-28T10:40:17.229Z,10.55
2023-01-28T10:42:45.016Z,10.88
2023-01-28T10:45:34.597Z,10.20
2023-01-28T10:48:08.031Z,8.95
2023-01-28T10:50:35.347Z,11.25
2023-01-28T10:53:04.675Z,9.05
2023-01-28T10:55:52.283Z,9.65
2023-01-28T10:58:22.396Z,10.05
2023-01-28T11:00:54.431Z,9.32
2023-01-28T11:03:23.089Z,7.78
2023-01-28T11:05:54.545Z,10.75
2023-01-28T11:08:23.065Z,10.73
2023-01-28T11:10:50.530Z,8.18
2023-01-28T11:13:21.514Z,10.13
2023-01-28T11:15:55.878Z,9.88
2023-01-28T11:18:28.430Z,9.48
2023-01-28T11:20:58.825Z,9.57
2023-01-28T11:23:30.012Z,9.43
2023-01-28T11:26:17.881Z,9.82
2023-01-28T11:28:44.641Z,8.82
2023-01-28T11:31:16.366Z,7.47
2023-01-28T11:33:45.595Z,7.90
2023-01-28T11:36:19.035Z,7.63
2023-01-28T11:38:52.146Z,10.13
2023-01-28T11:41:26.928Z,6.57
2023-01-28T11:43:54.238Z,9.15
2023-01-28T11:46:36.651Z,8.18
2023-01-28T11:49:34.566Z,8.23
2023-01-28T11:52:15.312Z,7.40
2023-01-28T11:54:48.072Z,8.30
2023-01-28T11:57:25.871Z,7.40
2023-01-28T12:00:14.321Z,7.93
2023-01-28T12:03:09.526Z,8.05
2023-01-28T12:06:12.172Z,6.85
2023-01-28T12:09:06.832Z,7.50
2023-01-28T12:12:11.736Z,7.20
2023-01-28T12:15:09.300Z,6.00
2023-01-28T12:18:08.111Z,6.07
2023-01-28T12:20:59.174Z,6.10
2023-01-28T12:23:55.313Z,6.97
2023-01-28T12:26:35.651Z,6.57
2023-01-28T12:29:22.869Z,6.93
2023-01-28T12:32:14.151Z,6.55
2023-01-28T12:35:07.833Z,5.82
2023-01-28T12:38:08.908Z,7.40
2023-01-28T12:40:56.237Z,5.28
2023-01-28T12:43:37.555Z,6.93
2023-01-28T12:46:26.724Z,5.97
2023-01-28T12:49:01.729Z,6.65
2023-01-28T12:51:37.646Z,5.78
2023-01-28T12:54:16.029Z,5.38
2023-01-28T12:56:49.115Z,5.07
2023-01-28T12:59:41.833Z,4.97
2023-01-28T13:02:11.415Z,5.68
2023-01-28T13:05:08.137Z,4.88
2023-01-28T13:07:59.140Z,5.40
2023-01-28T13:10:41.629Z,4.72
2023-01-28T13:13:18.064Z,4.88
2023-01-28T13:15:46.113Z,4.82
2023-01-28T13:18:38.438Z,5.53
2023-01-28T13:21:06.124Z,4.95
2023-01-28T13:23:39.982Z,5.13
2023-01-28T13:26:18.384Z,5.47
2023-01-28T13:28:50.782Z,4.75
2023-01-28T13:31:21.067Z,5.25
2023-01-28T13:33:55.210Z,4.45
2023-01-28T13:36:33.289Z,4.97
2023-01-28T13:39:11.866Z,4.40
2023-01-28T13:41:42.627Z,4.63
2023-01-28T13:44:28.007Z,3.88
2023-01-28T13:47:07.426Z,4.03
2023-01-28T13:49:55.530Z,5.22
2023-01-28T13:52:31.815Z,4.20
2023-01-28T13:55:43.496Z,4.38
2023-01-28T13:58:39.856Z,3.83
2023-01-28T14:01:15.310Z,3.72
2023-01-28T14:03:56.829Z,4.15
2023-01-28T14:06:56.800Z,4.18
2023-01-28T14:09:51.308Z,4.35
2023-01-28T14:12:46.769Z,5.03
2023-01-28T14:15:41.796Z,3.15
2023-01-28T14:18:31.861Z,3.88
2023-01-28T14:21:02.645Z,3.97
2023-01-28T14:23:32.211Z,3.17
2023-01-28T14:26:22.916Z,4.40
2023-01-28T14:29:34.189Z,4.25
2023-01-28T14:32:06.436Z,4.07
2023-01-28T14:34:35.793Z,3.20
2023-01-28T14:37:08.226Z,4.18
2023-01-28T14:39:47.000Z,3.10
2023-01-28T14:42:20.646Z,4.57
2023-01-28T14:45:09.098Z,3.38
2023-01-28T14:47:52.252Z,3.00
2023-01-28T14:50:37.788Z,2.87
2023-01-28T14:53:20.157Z,2.70
2023-01-28T14:56:17.801Z,3.58
2023-01-28T14:59:15.687Z,3.53
2023-01-28T15:01:47.335Z,4.47
2023-01-28T15:04:32.713Z,2.92
2023-01-28T15:07:15.580Z,3.72
2023-01-28T15:09:42.121Z,2.92
2023-01-28T15:12:09.527Z,2.22
2023-01-28T15:14:36.422Z,3.00
2023-01-28T15:17:03.742Z,3.55
2023-01-28T15:19:33.506Z,3.00
2023-01-28T15:22:03.466Z,3.35
2023-01-28T15:24:32.155Z,3.65
2023-01-28T15:26:58.938Z,2.53
2023-01-28T15:29:34.330Z,2.88
2023-01-28T15:32:02.519Z,2.25
2023-01-28T15:34:32.118Z,3.25
2023-01-28T15:37:00.192Z,2.75
2023-01-28T15:39:28.636Z,3.17
2023-01-28T15:42:06.998Z,3.13
2023-01-28T15:44:45.632Z,2.55
2023-01-28T15:47:26.079Z,2.25
2023-01-28T15:49:59.445Z,2.55
2023-01-28T15:52:35.673Z,2.90
2023-01-28T15:55:03.731Z,1.83
2023-01-28T15:57:33.502Z,2.30
2023-01-28T16:00:12.256Z,3.25
2023-01-28T16:02:50.171Z,2.67
2023-01-28T16:05:25.518Z,2.65
2023-01-28T16:07:52.327Z,2.80
2023-01-28T16:10:25.651Z,2.25
2023-01-28T16:12:55.568Z,2.97
2023-01-28T16:15:22.600Z,2.65
2023-01-28T16:17:51.807Z,2.15
2023-01-28T16:20:22.991Z,1.80
2023-01-28T16:22:50.313Z,2.60
2023-01-28T16:25:26.402Z,2.75
2023-01-28T16:27:53.181Z,2.33
2023-01-28T16:30:19.746Z,1.63
2023-01-28T16:32:46.582Z,2.45
2023-01-28T16:35:20.131Z,2.30
2023-01-28T16:37:48.478Z,2.03
2023-01-28T16:40:20.365Z,3.10
2023-01-28T16:42:50.749Z,2.35
2023-01-28T16:45:19.662Z,2.25
2023-01-28T16:47:46.248Z,2.55
2023-01-28T16:50:14.810Z,2.00
2023-01-28T16:52:44.044Z,2.08
2023-01-28T16:55:13.379Z,2.35
2023-01-28T16:57:40.642Z,2.30
2023-01-28T17:00:08.467Z,1.90
2023-01-28T17:02:34.981Z,2.03
2023-01-28T17:05:01.504Z,3.28
2023-01-28T17:07:28.037Z,2.38
2023-01-28T17:09:54.589Z,1.73
2023-01-28T17:12:21.247Z,2.30
2023-01-28T17:14:47.779Z,1.90
2023-01-28T17:17:14.281Z,2.40
2023-01-28T17:19:41.265Z,2.22
2023-01-28T17:22:07.763Z,1.58
2023-01-28T17:24:34.403Z,2.05
2023-01-28T17:27:00.994Z,1.67
2023-01-28T17:29:27.805Z,2.20
2023-01-28T17:31:54.374Z,2.05
2023-01-28T17:34:20.888Z,1.55
2023-01-28T17:36:47.419Z,1.80
2023-01-28T17:39:13.961Z,2.05
2023-01-28T17:41:40.445Z,1.75
2023-01-28T17:44:07.429Z,2.08
2023-01-28T17:46:33.932Z,2.08
2023-01-28T17:49:01.817Z,1.42
2023-01-28T17:51:28.365Z,2.55
2023-01-28T17:53:55.019Z,2.25
2023-01-28T17:56:26.676Z,2.17
2023-01-28T17:58:58.535Z,2.95
2023-01-28T18:01:26.221Z,3.03
2023-01-28T18:03:53.052Z,1.40
2023-01-28T18:06:19.771Z,2.30
2023-01-28T18:08:46.762Z,2.08
2023-01-28T18:11:15.426Z,2.78
2023-01-28T18:13:42.708Z,2.60
2023-01-28T18:16:14.809Z,1.50
2023-01-28T18:18:42.068Z,2.45
2023-01-28T18:21:20.993Z,3.72
2023-01-28T18:23:47.581Z,1.35
2023-01-28T18:26:14.112Z,2.67
2023-01-28T18:28:40.636Z,3.00
2023-01-28T18:31:08.371Z,1.77
2023-01-28T18:33:35.201Z,2.20
2023-01-28T18:36:01.817Z,2.17
2023-01-28T18:38:30.243Z,1.98
2023-01-28T18:40:57.282Z,1.83
2023-01-28T18:43:23.844Z,2.05
2023-01-28T18:45:52.142Z,2.03
2023-01-28T18:48:19.076Z,2.25
2023-01-28T18:50:53.008Z,1.67
2023-01-28T18:53:20.339Z,2.47
2023-01-28T18:55:46.973Z,2.55
2023-01-28T18:58:13.483Z,2.70
2023-01-28T19:00:40.171Z,1.90
2023-01-28T19:03:06.708Z,2.20
2023-01-28T19:05:38.690Z,2.50
2023-01-28T19:08:06.521Z,1.98
2023-01-28T19:10:33.704Z,2.80
2023-01-28T19:13:00.623Z,2.85
2023-01-28T19:15:27.252Z,2.95
2023-01-28T19:17:53.999Z,1.90
2023-01-28T19:20:20.542Z,1.90
2023-01-28T19:22:47.165Z,2.47
2023-01-28T19:25:14.190Z,3.33
2023-01-28T19:27:40.947Z,2.10
2023-01-28T19:30:08.385Z,3.08
2023-01-28T19:32:34.894Z,2.50
2023-01-28T19:35:01.406Z,2.25
2023-01-28T19:37:27.985Z,2.17
2023-01-28T19:39:54.473Z,3.28
2023-01-28T19:42:20.998Z,5.00
2023-01-28T19:44:47.494Z,2.03
2023-01-28T19:47:14.382Z,2.92
2023-01-28T19:49:40.886Z,2.50
2023-01-28T19:52:09.125Z,3.38
2023-01-28T19:54:35.661Z,2.45
2023-01-28T19:57:02.258Z,2.88
2023-01-28T19:59:29.204Z,2.42
2023-01-28T20:01:55.763Z,3.40
2023-01-28T20:04:22.429Z,3.47
2023-01-28T20:06:49.638Z,3.72
2023-01-28T20:09:22.235Z,4.30
2023-01-28T20:11:48.727Z,2.95
2023-01-28T20:14:16.231Z,4.10
2023-01-28T20:16:42.808Z,4.32
2023-01-28T20:19:15.215Z,3.42
2023-01-28T20:21:42.219Z,4.05
2023-01-28T20:24:11.759Z,3.33
2023-01-28T20:26:40.619Z,3.95
2023-01-28T20:29:13.184Z,3.85
2023-01-28T20:31:41.594Z,3.45
2023-01-28T20:34:12.565Z,4.80
2023-01-28T20:36:39.085Z,3.88
2023-01-28T20:39:05.660Z,4.47
2023-01-28T20:41:32.190Z,4.03
2023-01-28T20:43:58.819Z,4.28
2023-01-28T20:46:28.017Z,4.43
2023-01-28T20:48:56.647Z,4.88
2023-01-28T20:51:28.861Z,4.20
2023-01-28T20:53:57.050Z,4.43
2023-01-28T20:56:25.188Z,3.72
2023-01-28T20:58:57.223Z,5.72
2023-01-28T21:01:30.159Z,5.18
2023-01-28T21:03:57.410Z,4.63
2023-01-28T21:06:24.627Z,4.88
2023-01-28T21:08:52.941Z,6.47
2023-01-28T21:11:21.057Z,6.32
2023-01-28T21:13:47.972Z,5.05
2023-01-28T21:16:14.609Z,5.35
2023-01-28T21:18:41.125Z,6.13
2023-01-28T21:21:19.069Z,6.35
2023-01-28T21:23:45.596Z,6.70
2023-01-28T21:26:12.715Z,8.45
2023-01-28T21:28:39.195Z,6.50
2023-01-28T21:31:10.818Z,7.70
2023-01-28T21:33:37.962Z,6.93
2023-01-28T21:36:14.794Z,7.80
2023-01-28T21:38:42.021Z,8.38
2023-01-28T21:41:09.418Z,9.07
2023-01-28T21:43:36.053Z,8.40
2023-01-28T21:46:02.744Z,9.05
2023-01-28T21:48:29.836Z,7.53
2023-01-28T21:51:14.949Z,8.40
2023-01-28T21:53:42.190Z,7.78
2023-01-28T21:56:09.730Z,9.95
2023-01-28T21:58:56.433Z,10.90
2023-01-28T22:01:23.539Z,10.18
2023-01-28T22:03:50.153Z,10.43
2023-01-28T22:06:16.796Z,10.88
2023-01-28T22:08:43.448Z,9.77
2023-01-28T22:11:10.230Z,9.30
2023-01-28T22:13:37.480Z,9.30
2023-01-28T22:16:05.356Z,8.95
2023-01-28T22:18:32.687Z,10.25
2023-01-28T22:21:07.482Z,10.13
2023-01-28T22:23:34.641Z,9.70
2023-01-28T22:26:01.480Z,11.60
2023-01-28T22:28:29.060Z,12.57
2023-01-28T22:31:04.682Z,10.60
2023-01-28T22:33:31.387Z,10.65
2023-01-28T22:35:57.850Z,11.60
2023-01-28T22:38:24.418Z,10.18
2023-01-28T22:40:50.910Z,10.35
2023-01-28T22:43:18.282Z,10.95
2023-01-28T22:45:44.876Z,9.95
2023-01-28T22:48:11.396Z,11.10
2023-01-28T22:50:37.973Z,11.43
2023-01-28T22:53:04.489Z,9.73
2023-01-28T22:55:32.719Z,10.32
2023-01-28T22:57:59.230Z,11.32
2023-01-28T23:00:28.116Z,11.88
2023-01-28T23:02:54.836Z,10.80
2023-01-28T23:05:21.326Z,9.43
2023-01-28T23:07:47.897Z,9.68
2023-01-28T23:10:14.866Z,10.93
2023-01-28T23:12:41.625Z,10.93
2023-01-28T23:15:28.827Z,11.02
2023-01-28T23:18:31.224Z,11.13
2023-01-28T23:21:17.385Z,9.93
2023-01-28T23:24:02.254Z,11.00
2023-01-28T23:26:28.793Z,10.15
2023-01-28T23:28:55.350Z,10.63
2023-01-28T23:31:22.467Z,9.70
2023-01-28T23:33:49.041Z,9.43
2023-01-28T23:36:15.567Z,9.30
2023-01-28T23:38:42.047Z,10.95
2023-01-28T23:41:09.025Z,10.60
2023-01-28T23:43:35.518Z,10.60
2023-01-28T23:46:02.123Z,11.38
2023-01-28T23:48:29.657Z,9.93
2023-01-28T23:50:56.235Z,10.93
2023-01-28T23:53:22.766Z,9.88
2023-01-28T23:55:49.280Z,8.45
2023-01-28T23:58:15.811Z,10.40
